Time;durP1;ratioP1;P1;durP2;ratioP2;P2;SDS_P1;SDS_P2;PMS_P1;PMS_P2;Temp;Humidity;BMP_temperature;BMP_pressure;BME280_temperature;BME280_humidity;BME280_pressure;Samples;Min_cycle;Max_cycle;Signal;HPM_P1;HPM_P2
2022/01/17 00:01:26;;;;;;;22.27;20.17;;;3.30;99.90;;;;;;5041737;28;20206;-76
2022/01/17 00:03:53;;;;;;;20.77;18.87;;;3.30;99.90;;;;;;5037364;28;20201;-76
2022/01/17 00:06:20;;;;;;;20.63;18.70;;;3.40;99.90;;;;;;5042393;28;20280;-75
2022/01/17 00:08:49;;;;;;;21.13;19.00;;;3.30;99.90;;;;;;5054738;28;20249;-76
2022/01/17 00:11:17;;;;;;;20.47;18.60;;;3.30;99.90;;;;;;5065804;28;20233;-76
2022/01/17 00:13:45;;;;;;;21.37;19.43;;;3.30;99.90;;;;;;5061607;28;20348;-76
2022/01/17 00:16:15;;;;;;;20.47;18.47;;;3.30;99.90;;;;;;5055580;28;20465;-76
2022/01/17 00:21:24;;;;;;;21.50;19.20;;;3.30;99.90;;;;;;5011927;28;20288;-75
2022/01/17 00:23:51;;;;;;;21.90;19.60;;;3.30;99.90;;;;;;5062999;28;20436;-76
2022/01/17 00:26:18;;;;;;;21.67;19.67;;;3.30;99.90;;;;;;5058126;28;20223;-76
2022/01/17 00:28:45;;;;;;;21.40;19.40;;;3.30;99.90;;;;;;5054651;28;20198;-76
2022/01/17 00:31:11;;;;;;;22.20;19.83;;;3.30;99.90;;;;;;5053516;28;20207;-75
2022/01/17 00:33:38;;;;;;;21.40;19.30;;;3.30;99.90;;;;;;5062886;28;20831;-77
2022/01/17 00:36:07;;;;;;;20.70;18.80;;;3.30;99.90;;;;;;5061714;28;20588;-75
2022/01/17 00:38:34;;;;;;;21.37;18.87;;;3.30;99.90;;;;;;5038108;28;20195;-75
2022/01/17 00:41:01;;;;;;;21.47;19.07;;;3.30;99.90;;;;;;5053632;28;20187;-75
2022/01/17 00:43:28;;;;;;;20.93;18.97;;;3.30;99.90;;;;;;5052225;28;20429;-76
2022/01/17 00:45:55;;;;;;;20.70;18.80;;;3.30;99.90;;;;;;5062661;28;20543;-76
2022/01/17 00:48:22;;;;;;;21.17;19.17;;;3.30;99.90;;;;;;5054482;28;20434;-76
2022/01/17 00:50:49;;;;;;;21.07;19.07;;;3.30;99.90;;;;;;5047851;28;20453;-76
2022/01/17 00:53:17;;;;;;;21.00;18.90;;;3.20;99.90;;;;;;5052349;28;20214;-76
2022/01/17 00:55:44;;;;;;;20.63;18.73;;;3.30;99.90;;;;;;5041114;28;20818;-75
2022/01/17 00:58:11;;;;;;;19.30;17.37;;;3.20;99.90;;;;;;5037691;28;20450;-76
2022/01/17 01:00:38;;;;;;;19.17;17.27;;;3.20;99.90;;;;;;5063776;28;20194;-76
2022/01/17 01:03:05;;;;;;;19.87;17.93;;;3.20;99.90;;;;;;5056306;28;20690;-76
2022/01/17 01:05:32;;;;;;;19.47;17.67;;;3.20;99.90;;;;;;5067975;28;20470;-76
2022/01/17 01:07:59;;;;;;;20.37;18.37;;;3.30;99.90;;;;;;5056477;28;20230;-76
2022/01/17 01:10:28;;;;;;;19.37;17.57;;;3.30;99.90;;;;;;5062678;28;20201;-76
2022/01/17 01:12:54;;;;;;;18.93;17.13;;;3.30;99.90;;;;;;5067206;28;20211;-76
2022/01/17 01:15:34;;;;;;;19.53;17.53;;;3.20;99.90;;;;;;5062495;28;20222;-76
2022/01/17 01:18:12;;;;;;;19.50;17.70;;;3.20;99.90;;;;;;5040726;28;20210;-77
2022/01/17 01:21:01;;;;;;;18.90;17.17;;;3.30;99.90;;;;;;5056592;28;20206;-77
2022/01/17 01:28:58;;;;;;;18.60;16.70;;;3.20;99.90;;;;;;5057479;28;20195;-76
2022/01/17 01:31:38;;;;;;;18.67;16.87;;;3.20;99.90;;;;;;5063634;28;20210;-76
2022/01/17 01:34:07;;;;;;;18.73;17.03;;;3.30;99.90;;;;;;5065156;28;21011;-76
2022/01/17 01:36:34;;;;;;;18.83;17.03;;;3.30;99.90;;;;;;5061124;28;20969;-76
2022/01/17 01:39:02;;;;;;;18.30;16.60;;;3.30;99.90;;;;;;5058862;28;20437;-76
2022/01/17 01:41:30;;;;;;;18.50;16.70;;;3.30;99.90;;;;;;5059807;28;20184;-77
2022/01/17 01:43:59;;;;;;;18.33;16.73;;;3.30;99.90;;;;;;5059647;28;20973;-77
2022/01/17 01:46:26;;;;;;;17.47;15.97;;;3.30;99.90;;;;;;5039778;28;20514;-75
2022/01/17 01:48:53;;;;;;;19.27;17.50;;;3.30;99.90;;;;;;5060495;28;20206;-74
2022/01/17 01:51:20;;;;;;;18.40;16.73;;;3.30;99.90;;;;;;5059485;28;20503;-75
2022/01/17 01:53:47;;;;;;;19.00;17.20;;;3.30;99.90;;;;;;5061104;28;20475;-75
2022/01/17 01:56:14;;;;;;;19.13;17.43;;;3.30;99.90;;;;;;5060104;28;20211;-74
2022/01/17 01:58:44;;;;;;;17.57;16.00;;;3.30;99.90;;;;;;5054279;28;20438;-74
2022/01/17 02:01:10;;;;;;;17.10;15.50;;;3.20;99.90;;;;;;5060729;28;20434;-75
2022/01/17 02:03:37;;;;;;;18.70;16.90;;;3.20;99.90;;;;;;5065150;28;20441;-74
2022/01/17 02:06:04;;;;;;;18.70;17.03;;;3.20;99.90;;;;;;5058458;28;20970;-75
2022/01/17 02:08:31;;;;;;;18.13;16.43;;;3.20;99.90;;;;;;5060317;28;20434;-74
2022/01/17 02:10:58;;;;;;;18.20;16.50;;;3.20;99.90;;;;;;5039336;28;20493;-74
2022/01/17 02:13:26;;;;;;;18.67;16.93;;;3.20;99.90;;;;;;5043531;28;20214;-75
2022/01/17 02:16:01;;;;;;;18.20;16.40;;;3.20;99.90;;;;;;5060173;22;20593;-78
2022/01/17 02:18:30;;;;;;;17.80;16.10;;;3.10;99.90;;;;;;5035719;28;20449;-79
2022/01/17 02:21:11;;;;;;;16.63;15.23;;;3.20;99.90;;;;;;5051090;28;20452;-78
2022/01/17 02:23:41;;;;;;;17.87;16.27;;;3.20;99.90;;;;;;5049197;28;20195;-78
2022/01/17 02:26:08;;;;;;;17.67;15.97;;;3.20;99.90;;;;;;5047765;28;20454;-78
2022/01/17 02:28:36;;;;;;;17.43;15.93;;;3.20;99.90;;;;;;5043403;28;20560;-79
2022/01/17 02:31:04;;;;;;;17.67;15.97;;;3.10;99.90;;;;;;5043443;28;20500;-78
2022/01/17 02:33:31;;;;;;;17.63;15.83;;;3.10;99.90;;;;;;5029822;28;20210;-79
2022/01/17 02:36:01;;;;;;;17.70;16.00;;;3.10;99.90;;;;;;5046180;28;20469;-77
2022/01/17 02:38:29;;;;;;;15.67;14.27;;;3.10;99.90;;;;;;5036002;28;20200;-78
2022/01/17 02:40:56;;;;;;;17.40;15.80;;;3.10;99.90;;;;;;5043850;28;20692;-79
2022/01/17 02:43:24;;;;;;;16.07;14.80;;;3.10;99.90;;;;;;5046398;28;20435;-77
2022/01/17 02:48:34;;;;;;;16.83;15.43;;;3.10;99.90;;;;;;5028014;28;20474;-80
2022/01/17 02:51:04;;;;;;;17.97;16.37;;;3.10;99.90;;;;;;5047281;28;20194;-78
2022/01/17 02:53:31;;;;;;;15.93;14.63;;;3.10;99.90;;;;;;5029185;28;20485;-79
2022/01/17 02:56:00;;;;;;;17.37;15.87;;;3.10;99.90;;;;;;5023363;28;20281;-79
2022/01/17 02:58:28;;;;;;;18.20;16.33;;;3.00;99.90;;;;;;5043777;28;20191;-80
2022/01/17 03:00:57;;;;;;;16.60;15.30;;;3.10;99.90;;;;;;5043330;28;20192;-79
2022/01/17 03:03:27;;;;;;;17.80;16.10;;;3.00;99.90;;;;;;5043916;28;20924;-79
2022/01/17 03:05:55;;;;;;;18.07;16.57;;;3.00;99.90;;;;;;5043628;28;20220;-79
2022/01/17 03:08:25;;;;;;;18.73;16.83;;;3.10;99.90;;;;;;5046205;28;20442;-78
2022/01/17 03:10:53;;;;;;;17.20;15.70;;;3.10;99.90;;;;;;5044116;28;20422;-81
2022/01/17 03:13:24;;;;;;;17.87;16.43;;;3.10;99.90;;;;;;5038831;28;20219;-79
2022/01/17 03:15:55;;;;;;;17.87;16.17;;;3.20;99.90;;;;;;5046435;28;20500;-79
2022/01/17 03:18:22;;;;;;;18.13;16.53;;;3.20;99.90;;;;;;5042073;28;20222;-77
2022/01/17 03:20:49;;;;;;;18.90;17.17;;;3.20;99.90;;;;;;5025231;28;20624;-78
2022/01/17 03:23:16;;;;;;;18.00;16.30;;;3.20;99.90;;;;;;5045311;28;20187;-78
2022/01/17 03:25:45;;;;;;;17.97;16.00;;;3.20;99.90;;;;;;5043229;28;20869;-78
2022/01/17 03:28:12;;;;;;;18.37;16.73;;;3.30;99.90;;;;;;5043357;28;20444;-80
2022/01/17 03:30:39;;;;;;;18.67;17.03;;;3.30;99.90;;;;;;5043778;28;20446;-79
2022/01/17 03:33:08;;;;;;;17.90;16.30;;;3.30;99.90;;;;;;5044683;28;20479;-80
2022/01/17 03:35:38;;;;;;;17.10;15.60;;;3.30;99.90;;;;;;5039778;28;20459;-80
2022/01/17 03:38:05;;;;;;;17.63;16.23;;;3.30;99.90;;;;;;5038092;28;20511;-79
2022/01/17 03:40:32;;;;;;;17.70;15.97;;;3.30;99.90;;;;;;5029950;28;20449;-81
2022/01/17 03:43:00;;;;;;;17.50;16.03;;;3.30;99.90;;;;;;5050467;28;20187;-79
2022/01/17 03:45:27;;;;;;;17.13;15.70;;;3.40;99.90;;;;;;5019482;28;20865;-80
2022/01/17 03:47:54;;;;;;;17.90;16.33;;;3.30;99.90;;;;;;5038865;28;20814;-82
2022/01/17 03:50:23;;;;;;;18.00;16.37;;;3.30;99.90;;;;;;5039389;28;20214;-82
2022/01/17 03:52:51;;;;;;;17.03;15.63;;;3.40;99.90;;;;;;5017816;28;20203;-79
2022/01/17 03:55:20;;;;;;;18.37;16.80;;;3.40;99.90;;;;;;5038122;28;20195;-79
2022/01/17 03:57:48;;;;;;;17.93;16.43;;;3.40;99.90;;;;;;5044108;28;20598;-80
2022/01/17 04:00:20;;;;;;;17.30;15.90;;;3.40;99.90;;;;;;5043408;28;20434;-80
2022/01/17 04:02:47;;;;;;;16.67;15.23;;;3.40;99.90;;;;;;5043926;28;20180;-79
2022/01/17 04:05:14;;;;;;;17.33;15.83;;;3.40;99.90;;;;;;5053482;28;20444;-80
2022/01/17 04:07:41;;;;;;;17.60;16.23;;;3.40;99.90;;;;;;5045092;28;20199;-79
2022/01/17 04:10:09;;;;;;;16.83;15.23;;;3.40;99.90;;;;;;5044710;28;20191;-81
2022/01/17 04:12:36;;;;;;;16.63;15.00;;;3.50;99.90;;;;;;5046627;28;20442;-80
2022/01/17 04:15:04;;;;;;;17.47;16.00;;;3.50;99.90;;;;;;5018250;28;20212;-78
2022/01/17 04:17:32;;;;;;;17.23;15.77;;;3.50;99.90;;;;;;5023739;28;20589;-80
2022/01/17 04:20:05;;;;;;;16.87;15.50;;;3.50;99.90;;;;;;5044111;28;20216;-80
2022/01/17 04:22:35;;;;;;;17.33;15.73;;;3.50;99.90;;;;;;5038394;28;20191;-80
2022/01/17 04:25:03;;;;;;;16.23;14.93;;;3.50;99.90;;;;;;5045962;28;20187;-80
2022/01/17 04:27:30;;;;;;;17.47;15.97;;;3.50;99.90;;;;;;5016167;28;20191;-80
2022/01/17 04:29:57;;;;;;;17.13;15.73;;;3.50;99.90;;;;;;5016849;28;20199;-80
2022/01/17 04:32:23;;;;;;;17.07;15.57;;;3.50;99.90;;;;;;5057055;28;20199;-79
2022/01/17 04:34:52;;;;;;;16.97;15.57;;;3.50;99.90;;;;;;5046440;28;20207;-79
2022/01/17 04:37:19;;;;;;;17.90;16.17;;;3.50;99.90;;;;;;5025719;28;20235;-80
2022/01/17 04:39:46;;;;;;;18.20;16.57;;;3.50;99.90;;;;;;5047829;28;20449;-83
2022/01/17 04:42:13;;;;;;;17.00;15.60;;;3.50;99.90;;;;;;5028311;28;20971;-77
2022/01/17 04:47:25;;;;;;;17.67;16.07;;;3.60;99.90;;;;;;5030752;28;20215;-78
2022/01/17 04:49:53;;;;;;;17.60;16.00;;;3.60;99.90;;;;;;5055605;28;20760;-78
2022/01/17 04:52:20;;;;;;;17.13;15.67;;;3.50;99.90;;;;;;5043421;28;20261;-78
2022/01/17 04:54:52;;;;;;;18.33;16.73;;;3.50;99.90;;;;;;5046987;28;20223;-80
2022/01/17 04:57:21;;;;;;;17.67;16.07;;;3.50;99.90;;;;;;5048542;28;20709;-78
2022/01/17 04:59:48;;;;;;;18.47;16.70;;;3.50;99.90;;;;;;5044972;28;20930;-78
2022/01/17 05:02:16;;;;;;;18.33;16.80;;;3.50;99.90;;;;;;5029982;28;20649;-77
2022/01/17 05:04:45;;;;;;;17.13;15.73;;;3.50;99.90;;;;;;5046708;28;20560;-78
2022/01/17 05:07:14;;;;;;;17.67;16.00;;;3.50;99.90;;;;;;5050472;28;20302;-79
2022/01/17 05:09:42;;;;;;;18.03;16.33;;;3.60;99.90;;;;;;5028537;28;20199;-78
2022/01/17 05:12:10;;;;;;;18.43;16.73;;;3.50;99.90;;;;;;5049135;28;20436;-77
2022/01/17 05:14:39;;;;;;;18.57;16.83;;;3.50;99.90;;;;;;5042730;28;20208;-79
2022/01/17 05:17:22;;;;;;;18.20;16.53;;;3.50;99.90;;;;;;5046675;28;20227;-79
2022/01/17 05:19:49;;;;;;;16.97;15.47;;;3.50;99.90;;;;;;5045325;28;20224;-78
2022/01/17 05:22:18;;;;;;;17.10;15.70;;;3.50;99.90;;;;;;5028740;28;20250;-79
2022/01/17 05:24:45;;;;;;;18.17;16.57;;;3.50;99.90;;;;;;5046349;28;20433;-79
2022/01/17 05:27:12;;;;;;;17.30;15.90;;;3.50;99.90;;;;;;5047029;28;20204;-79
2022/01/17 05:29:39;;;;;;;17.47;15.97;;;3.60;99.90;;;;;;5039473;28;20955;-78
2022/01/17 05:32:07;;;;;;;17.30;15.83;;;3.60;99.90;;;;;;5029150;28;20460;-78
2022/01/17 05:34:37;;;;;;;17.43;15.83;;;3.50;99.90;;;;;;5021707;28;20213;-78
2022/01/17 05:37:06;;;;;;;18.20;16.63;;;3.50;99.90;;;;;;5016178;28;20314;-80
2022/01/17 05:39:35;;;;;;;17.50;16.00;;;3.60;99.90;;;;;;5031170;28;20556;-78
2022/01/17 05:42:01;;;;;;;18.87;17.17;;;3.60;99.90;;;;;;5041579;28;20446;-78
2022/01/17 05:44:28;;;;;;;17.40;15.90;;;3.60;99.90;;;;;;5037649;28;20626;-80
2022/01/17 05:46:55;;;;;;;17.07;15.63;;;3.60;99.90;;;;;;5045875;28;20226;-80
2022/01/17 05:49:22;;;;;;;17.03;15.53;;;3.70;99.90;;;;;;5030369;28;20204;-79
2022/01/17 05:51:49;;;;;;;18.20;16.50;;;3.70;99.90;;;;;;5027884;28;20200;-78
2022/01/17 05:54:16;;;;;;;16.57;15.20;;;3.70;99.90;;;;;;5024620;28;20223;-77
2022/01/17 05:56:45;;;;;;;17.93;16.30;;;3.70;99.90;;;;;;5042459;28;20234;-77
2022/01/17 05:59:11;;;;;;;16.83;15.43;;;3.60;99.90;;;;;;5051581;28;20237;-77
2022/01/17 06:01:42;;;;;;;17.07;15.37;;;3.60;99.90;;;;;;5044657;28;20194;-78
2022/01/17 06:04:09;;;;;;;16.70;15.30;;;3.60;99.90;;;;;;5024230;28;20196;-79
2022/01/17 06:06:36;;;;;;;17.47;15.97;;;3.60;99.90;;;;;;5026797;28;20246;-78
2022/01/17 06:09:03;;;;;;;18.40;16.90;;;3.70;99.90;;;;;;5034977;28;20222;-78
2022/01/17 06:11:33;;;;;;;17.63;16.13;;;3.60;99.90;;;;;;5040107;28;20437;-76
2022/01/17 06:14:02;;;;;;;17.63;16.23;;;3.70;99.90;;;;;;5048474;28;20218;-79
2022/01/17 06:16:30;;;;;;;17.63;16.00;;;3.60;99.90;;;;;;5045522;28;20258;-78
2022/01/17 06:18:57;;;;;;;17.00;15.50;;;3.70;99.90;;;;;;5029666;28;20549;-76
2022/01/17 06:21:23;;;;;;;18.10;16.60;;;3.70;99.90;;;;;;5039854;28;20429;-80
2022/01/17 06:23:52;;;;;;;17.90;16.40;;;3.70;99.90;;;;;;5047994;28;20195;-79
2022/01/17 06:26:19;;;;;;;17.00;15.50;;;3.70;99.90;;;;;;5043269;28;20704;-76
2022/01/17 06:28:46;;;;;;;16.57;15.07;;;3.70;99.90;;;;;;5041840;28;20478;-78
2022/01/17 06:31:15;;;;;;;16.27;14.97;;;3.70;99.90;;;;;;5044839;28;20195;-79
2022/01/17 06:33:42;;;;;;;17.70;16.20;;;3.70;99.90;;;;;;5045025;28;20434;-81
2022/01/17 06:36:08;;;;;;;16.27;14.87;;;3.70;99.90;;;;;;5026725;28;20276;-78
2022/01/17 06:38:35;;;;;;;16.27;14.90;;;3.70;99.90;;;;;;5038790;28;20216;-77
2022/01/17 06:41:02;;;;;;;16.57;15.17;;;3.70;99.90;;;;;;5045566;28;20195;-77
2022/01/17 06:43:29;;;;;;;16.37;15.17;;;3.70;99.90;;;;;;5024424;28;20215;-77
2022/01/17 06:45:56;;;;;;;17.30;15.90;;;3.70;99.90;;;;;;5022055;28;20305;-76
2022/01/17 06:48:24;;;;;;;16.33;15.07;;;3.80;99.90;;;;;;5022008;28;20196;-81
2022/01/17 06:50:51;;;;;;;16.77;15.33;;;3.80;99.90;;;;;;5036292;28;20192;-76
2022/01/17 06:53:18;;;;;;;16.37;14.97;;;3.80;99.90;;;;;;5017019;28;20247;-78
2022/01/17 06:55:45;;;;;;;16.37;15.07;;;3.80;99.90;;;;;;5040311;28;20226;-80
2022/01/17 06:58:11;;;;;;;15.57;14.27;;;3.80;99.90;;;;;;5011392;28;20203;-78
2022/01/17 07:00:38;;;;;;;15.43;14.03;;;3.80;99.90;;;;;;5030790;28;20199;-76
2022/01/17 07:03:05;;;;;;;16.03;14.77;;;3.90;99.90;;;;;;5007423;28;20223;-78
2022/01/17 07:05:33;;;;;;;16.70;15.20;;;3.90;99.90;;;;;;5017469;28;20722;-77
2022/01/17 07:08:00;;;;;;;14.70;13.50;;;3.80;99.90;;;;;;5035209;28;20192;-78
2022/01/17 07:10:28;;;;;;;16.63;15.23;;;3.90;99.90;;;;;;5038888;28;20199;-78
2022/01/17 07:12:55;;;;;;;16.50;15.00;;;3.80;99.90;;;;;;5039364;28;20196;-78
2022/01/17 07:15:22;;;;;;;16.83;15.03;;;3.90;99.90;;;;;;5043355;28;20235;-77
2022/01/17 07:17:49;;;;;;;14.93;13.57;;;3.80;99.90;;;;;;5046661;28;20191;-78
2022/01/17 07:20:16;;;;;;;16.73;15.13;;;3.90;99.90;;;;;;5042446;28;20438;-77
2022/01/17 07:22:44;;;;;;;15.33;14.07;;;3.90;99.90;;;;;;5022656;28;20199;-77
2022/01/17 07:25:12;;;;;;;15.37;14.00;;;3.90;99.90;;;;;;5041586;28;20188;-77
2022/01/17 07:27:42;;;;;;;15.57;14.27;;;3.90;99.90;;;;;;5043407;28;20195;-77
2022/01/17 07:30:10;;;;;;;15.80;14.40;;;3.90;99.90;;;;;;5025117;28;20470;-77
2022/01/17 07:32:38;;;;;;;15.73;14.47;;;3.90;99.90;;;;;;5043920;28;20272;-77
2022/01/17 07:35:06;;;;;;;16.70;15.40;;;3.90;99.90;;;;;;5043133;28;20219;-77
2022/01/17 07:37:33;;;;;;;16.57;15.07;;;3.90;99.90;;;;;;5013914;28;20199;-77
2022/01/17 07:40:02;;;;;;;15.90;14.47;;;4.00;99.90;;;;;;5036272;28;20258;-77
2022/01/17 07:42:29;;;;;;;15.47;14.27;;;4.00;99.90;;;;;;5024820;28;20195;-78
2022/01/17 07:44:58;;;;;;;16.47;14.90;;;3.90;99.90;;;;;;5044226;28;20699;-78
2022/01/17 07:47:39;;;;;;;16.43;14.93;;;4.00;99.90;;;;;;5039419;28;20200;-78
2022/01/17 07:50:07;;;;;;;16.20;14.67;;;4.00;99.90;;;;;;5035663;28;20628;-79
2022/01/17 07:52:34;;;;;;;16.23;14.83;;;4.00;99.90;;;;;;5016517;28;20677;-78
2022/01/17 07:55:02;;;;;;;16.50;15.00;;;4.00;99.90;;;;;;5023677;28;20222;-81
2022/01/17 07:57:29;;;;;;;16.97;15.47;;;4.00;99.90;;;;;;5039488;28;20199;-82
2022/01/17 07:59:56;;;;;;;17.03;15.50;;;4.00;99.90;;;;;;5041327;28;20192;-81
2022/01/17 08:02:23;;;;;;;17.30;15.80;;;4.10;99.90;;;;;;5054519;28;20218;-81
2022/01/17 08:04:50;;;;;;;17.60;16.20;;;4.10;99.90;;;;;;5030795;28;20195;-80
2022/01/17 08:07:17;;;;;;;17.80;16.30;;;4.10;99.90;;;;;;5033184;28;20615;-80
2022/01/17 08:09:44;;;;;;;15.40;14.20;;;4.10;99.90;;;;;;5058782;28;20195;-81
2022/01/17 08:12:12;;;;;;;16.40;15.07;;;4.20;99.90;;;;;;5032132;28;20203;-80
2022/01/17 08:14:40;;;;;;;16.40;14.90;;;4.10;99.90;;;;;;5044412;28;20214;-81
2022/01/17 08:17:08;;;;;;;16.50;15.10;;;4.20;99.90;;;;;;5066452;22;20276;-76
2022/01/17 08:19:35;;;;;;;16.63;15.27;;;4.20;99.90;;;;;;5054584;28;20194;-76
2022/01/17 08:22:03;;;;;;;16.70;15.23;;;4.20;99.90;;;;;;5058304;28;20202;-77
2022/01/17 08:24:31;;;;;;;15.83;14.47;;;4.20;99.90;;;;;;5065759;28;20210;-77
2022/01/17 08:27:00;;;;;;;16.80;15.40;;;4.20;99.90;;;;;;5079456;28;20217;-78
2022/01/17 08:29:29;;;;;;;16.50;15.20;;;4.20;99.90;;;;;;5074941;28;20198;-76
2022/01/17 08:31:56;;;;;;;16.90;15.33;;;4.20;99.90;;;;;;5073940;28;20193;-76
2022/01/17 08:34:23;;;;;;;16.03;14.77;;;4.20;99.90;;;;;;5074781;28;20682;-76
2022/01/17 08:36:50;;;;;;;16.30;14.93;;;4.20;99.90;;;;;;5054326;28;20214;-76
2022/01/17 08:39:17;;;;;;;16.27;14.97;;;4.20;99.90;;;;;;5081109;28;20205;-76
2022/01/17 08:41:44;;;;;;;16.03;14.73;;;4.20;99.90;;;;;;5065012;28;20577;-77
2022/01/17 08:44:12;;;;;;;17.10;15.73;;;4.20;99.90;;;;;;5061037;28;20213;-76
2022/01/17 08:46:41;;;;;;;16.67;15.27;;;4.20;99.90;;;;;;5060913;28;20222;-77
2022/01/17 08:49:08;;;;;;;16.63;15.20;;;4.20;99.90;;;;;;5061920;28;20186;-76
2022/01/17 08:51:36;;;;;;;16.23;14.93;;;4.20;99.90;;;;;;5081265;28;20197;-78
2022/01/17 08:54:03;;;;;;;16.77;15.37;;;4.20;99.90;;;;;;5072883;28;20187;-77
2022/01/17 08:56:30;;;;;;;16.07;14.77;;;4.20;99.90;;;;;;5080068;28;20227;-77
2022/01/17 08:58:57;;;;;;;15.70;14.30;;;4.20;99.90;;;;;;5053678;28;20655;-77
2022/01/17 09:01:24;;;;;;;16.10;14.87;;;4.20;99.90;;;;;;5080495;28;20281;-78
2022/01/17 09:03:53;;;;;;;15.03;13.83;;;4.20;99.90;;;;;;5074138;28;20194;-77
2022/01/17 09:06:20;;;;;;;15.30;14.10;;;4.30;99.90;;;;;;5065682;28;20225;-75
2022/01/17 09:08:46;;;;;;;15.47;14.27;;;4.30;99.90;;;;;;5079267;28;20248;-79
2022/01/17 09:11:14;;;;;;;14.63;13.43;;;4.40;99.90;;;;;;5062361;28;20222;-81
2022/01/17 09:13:41;;;;;;;15.03;13.83;;;4.50;99.90;;;;;;5074139;28;20607;-77
2022/01/17 09:16:09;;;;;;;16.40;15.00;;;4.60;99.90;;;;;;5059907;28;20702;-78
2022/01/17 09:18:37;;;;;;;14.80;13.57;;;4.60;99.90;;;;;;5059999;28;20210;-78
2022/01/17 09:21:05;;;;;;;15.20;13.90;;;4.60;99.90;;;;;;5064606;28;20705;-78
2022/01/17 09:23:32;;;;;;;15.53;14.43;;;4.70;99.90;;;;;;5081847;28;20190;-77
2022/01/17 09:25:59;;;;;;;16.50;15.30;;;4.80;99.90;;;;;;5082811;28;20219;-77
2022/01/17 09:28:26;;;;;;;16.87;15.57;;;4.90;99.90;;;;;;5089438;28;20194;-76
2022/01/17 09:30:52;;;;;;;16.30;14.80;;;5.00;99.90;;;;;;5066375;28;20610;-75
2022/01/17 09:33:19;;;;;;;12.07;11.07;;;5.10;99.90;;;;;;5054380;28;20210;-75
2022/01/17 09:35:47;;;;;;;9.43;8.00;;;5.20;99.90;;;;;;5081012;28;20757;-76
2022/01/17 09:38:15;;;;;;;8.77;6.40;;;5.30;99.90;;;;;;5061888;28;20194;-75
2022/01/17 09:40:42;;;;;;;15.53;14.13;;;5.40;99.90;;;;;;5075662;28;20195;-78
2022/01/17 09:43:09;;;;;;;14.43;13.03;;;5.50;99.90;;;;;;5082141;28;20195;-79
2022/01/17 09:45:36;;;;;;;14.00;12.70;;;5.50;99.90;;;;;;5080822;28;20687;-79
2022/01/17 09:48:06;;;;;;;16.17;14.87;;;5.60;99.90;;;;;;5064038;28;20198;-77
2022/01/17 09:50:44;;;;;;;14.20;13.00;;;5.60;99.90;;;;;;5081360;28;20589;-76
2022/01/17 09:53:13;;;;;;;10.03;7.27;;;5.60;99.90;;;;;;5077003;28;20205;-76
2022/01/17 09:55:42;;;;;;;10.77;9.70;;;5.60;99.90;;;;;;5081858;28;20311;-76
2022/01/17 09:58:10;;;;;;;9.63;6.73;;;5.60;99.90;;;;;;5064615;28;20221;-75
2022/01/17 10:00:41;;;;;;;13.67;12.53;;;5.70;99.90;;;;;;5068245;28;20203;-76
2022/01/17 10:03:10;;;;;;;9.17;6.97;;;5.90;99.90;;;;;;5063129;28;20210;-77
2022/01/17 10:05:38;;;;;;;10.43;9.53;;;5.90;99.90;;;;;;5058840;28;20199;-75
2022/01/17 10:08:07;;;;;;;12.10;11.00;;;6.00;99.90;;;;;;5045318;28;20211;-76
2022/01/17 10:10:46;;;;;;;14.73;13.50;;;6.00;99.90;;;;;;5066676;28;20195;-75
2022/01/17 10:13:16;;;;;;;13.13;12.03;;;6.00;99.90;;;;;;5064652;28;20196;-77
2022/01/17 10:16:03;;;;;;;16.17;14.97;;;6.00;99.90;;;;;;5063032;28;20223;-75
2022/01/17 10:18:34;;;;;;;10.40;9.57;;;6.00;99.90;;;;;;5054511;28;20199;-77
2022/01/17 10:21:05;;;;;;;12.43;11.43;;;6.00;99.90;;;;;;5039750;28;20203;-76
2022/01/17 10:26:51;;;;;;;14.17;13.17;;;6.00;99.90;;;;;;5049094;28;20598;-74
2022/01/17 10:30:00;;;;;;;6.10;5.50;;;6.10;99.90;;;;;;5066011;28;20345;-74
2022/01/17 10:35:28;;;;;;;7.33;6.03;;;6.30;99.90;;;;;;4997973;28;20248;-74
2022/01/17 10:38:00;;;;;;;7.60;6.80;;;6.20;99.90;;;;;;5048517;28;20207;-74
2022/01/17 10:40:30;;;;;;;13.87;12.83;;;6.20;99.90;;;;;;5067989;28;20639;-74
2022/01/17 10:43:00;;;;;;;7.93;6.53;;;6.20;99.90;;;;;;5062496;28;20200;-74
2022/01/17 10:45:33;;;;;;;11.00;10.13;;;6.10;99.90;;;;;;5049435;28;20683;-74
2022/01/17 10:48:02;;;;;;;7.30;6.60;;;6.00;99.90;;;;;;5061133;28;20211;-74
2022/01/17 10:50:31;;;;;;;13.70;12.70;;;6.00;99.90;;;;;;5067905;28;20217;-74
2022/01/17 10:53:01;;;;;;;13.50;12.60;;;6.00;99.90;;;;;;5071507;28;20199;-74
2022/01/17 10:55:30;;;;;;;14.10;13.00;;;6.00;99.90;;;;;;5054175;28;20222;-74
2022/01/17 10:58:02;;;;;;;13.30;12.40;;;5.90;99.90;;;;;;5072191;28;20203;-74
2022/01/17 11:00:31;;;;;;;13.27;12.20;;;5.90;99.90;;;;;;5060476;28;20223;-74
2022/01/17 11:03:00;;;;;;;13.53;12.53;;;5.80;99.90;;;;;;5076111;28;20192;-74
2022/01/17 11:05:28;;;;;;;12.47;11.57;;;5.80;99.90;;;;;;5076608;28;20259;-74
2022/01/17 11:07:58;;;;;;;13.00;12.10;;;5.80;99.90;;;;;;5083892;28;20647;-74
2022/01/17 11:10:27;;;;;;;12.63;11.73;;;5.80;99.90;;;;;;5059731;28;20202;-75
2022/01/17 11:12:56;;;;;;;12.60;11.60;;;5.80;99.90;;;;;;5075345;28;20191;-74
2022/01/17 11:15:26;;;;;;;12.67;11.77;;;5.70;99.90;;;;;;5071962;28;20218;-74
2022/01/17 11:17:56;;;;;;;12.53;11.60;;;5.90;99.90;;;;;;5065622;28;20205;-74
2022/01/17 11:20:24;;;;;;;12.43;11.50;;;6.10;99.90;;;;;;5080016;28;20209;-74
2022/01/17 11:22:54;;;;;;;13.03;12.13;;;6.30;99.90;;;;;;5059003;28;20195;-75
2022/01/17 11:25:24;;;;;;;12.50;11.70;;;6.40;99.90;;;;;;5076606;28;20198;-75
2022/01/17 11:27:52;;;;;;;12.93;11.83;;;6.40;99.90;;;;;;5083529;28;20205;-75
2022/01/17 11:30:19;;;;;;;5.10;4.70;;;6.50;99.90;;;;;;5081325;28;20209;-75
2022/01/17 11:32:50;;;;;;;5.83;5.23;;;6.50;99.90;;;;;;5078154;28;20383;-74
2022/01/17 11:35:19;;;;;;;5.47;4.87;;;6.60;99.90;;;;;;5059341;28;20222;-75
2022/01/17 11:37:48;;;;;;;12.60;11.60;;;6.60;99.90;;;;;;5074224;28;20753;-74
2022/01/17 11:40:20;;;;;;;5.87;5.37;;;6.60;99.90;;;;;;5069367;28;20196;-74
2022/01/17 11:42:49;;;;;;;11.90;11.20;;;6.70;99.90;;;;;;5048161;28;20191;-72
2022/01/17 11:45:38;;;;;;;5.20;4.80;;;6.70;99.90;;;;;;5061413;28;20208;-75
2022/01/17 11:48:21;;;;;;;4.03;3.73;;;6.70;99.90;;;;;;5076602;28;20207;-75
2022/01/17 11:50:49;;;;;;;7.67;7.13;;;6.80;99.90;;;;;;5079663;28;20195;-74
2022/01/17 11:53:51;;;;;;;4.77;4.40;;;6.80;99.90;;;;;;5063942;28;20236;-74
2022/01/17 11:56:43;;;;;;;7.30;6.70;;;7.00;99.90;;;;;;5058680;28;20229;-75
2022/01/17 11:59:39;;;;;;;7.87;7.37;;;7.00;99.90;;;;;;5073979;28;20193;-74
2022/01/17 12:02:37;;;;;;;7.67;7.20;;;7.00;99.90;;;;;;5077748;28;20200;-75
2022/01/17 12:05:35;;;;;;;3.50;3.20;;;7.10;99.90;;;;;;4973553;28;20199;-75
2022/01/17 12:08:06;;;;;;;4.17;3.77;;;7.10;99.90;;;;;;5062294;28;20249;-75
2022/01/17 12:10:44;;;;;;;4.03;3.60;;;7.10;99.90;;;;;;5077027;28;20237;-75
2022/01/17 12:13:41;;;;;;;4.23;3.83;;;7.00;99.90;;;;;;5074828;28;20199;-75
2022/01/17 12:16:14;;;;;;;4.00;3.60;;;7.00;99.90;;;;;;5079609;28;20220;-75
2022/01/17 12:18:43;;;;;;;4.50;4.10;;;7.00;99.90;;;;;;5079550;28;20464;-77
2022/01/17 12:21:28;;;;;;;4.97;4.20;;;7.00;99.90;;;;;;5079590;28;20199;-75
2022/01/17 12:24:30;;;;;;;6.30;5.80;;;7.00;99.90;;;;;;5064594;28;20730;-74
2022/01/17 12:27:28;;;;;;;11.50;10.70;;;7.10;99.90;;;;;;5065826;28;20579;-78
2022/01/17 12:29:58;;;;;;;12.00;11.20;;;7.10;99.90;;;;;;5056318;28;20307;-75
2022/01/17 12:32:52;;;;;;;12.77;11.90;;;7.10;99.90;;;;;;5074768;28;20201;-75
2022/01/17 12:35:29;;;;;;;12.30;11.50;;;7.00;99.90;;;;;;5072723;28;20212;-75
2022/01/17 12:38:06;;;;;;;12.13;11.40;;;6.90;99.90;;;;;;5085762;28;20207;-75
2022/01/17 12:40:36;;;;;;;11.60;10.90;;;6.90;99.90;;;;;;5054627;28;21506;-75
2022/01/17 12:43:06;;;;;;;12.70;11.80;;;6.90;99.90;;;;;;5070705;28;20614;-74
2022/01/17 12:45:35;;;;;;;13.77;12.60;;;6.80;99.90;;;;;;5070903;28;20451;-75
2022/01/17 12:48:08;;;;;;;12.77;11.80;;;6.70;99.90;;;;;;5070907;28;20661;-75
2022/01/17 12:50:36;;;;;;;12.60;11.80;;;6.60;99.90;;;;;;5073185;28;20243;-74
2022/01/17 12:53:07;;;;;;;12.03;11.33;;;6.50;99.90;;;;;;5062885;28;20196;-76
2022/01/17 12:55:37;;;;;;;11.50;10.80;;;6.50;99.90;;;;;;5081408;28;20204;-74
2022/01/17 12:58:17;;;;;;;11.20;10.50;;;6.40;99.90;;;;;;5082399;28;20238;-74
2022/01/17 13:00:46;;;;;;;11.20;10.50;;;6.30;99.90;;;;;;5079596;28;20198;-75
2022/01/17 13:03:15;;;;;;;11.30;10.60;;;6.20;99.90;;;;;;5074368;28;20197;-75
2022/01/17 13:05:43;;;;;;;11.73;11.03;;;6.10;99.90;;;;;;5062125;28;20619;-75
2022/01/17 13:08:12;;;;;;;12.23;11.40;;;6.00;99.90;;;;;;5077770;28;20200;-75
2022/01/17 13:10:39;;;;;;;11.70;11.00;;;5.90;99.90;;;;;;5065641;28;20199;-74